KSHVKAEX

Guest
Details From KSHV - Shreveport Rgnl
To KAEX - Alexandria Intl
Flight Number -
Tags Generated
Created
Modified
Stats Distance 94 nm / 173 km
Max Altitude 0 ft / 0 m
Waypoints 2
Social Downloads 0
Likes 0
Share VATSIM

Download

Looking for another format? Having issues loading an existing format? Contact us
Advertisement - Login to hide

Notes

Generated

Route

KSHV KAEX

ID Type Via Altitude Latitude Longitude Leg Dist Tot Dist Heading (true) Name
O KSHV APT - 0 ft / 0 m 32.44506˚ -93.83292˚ - 0 nm - SHREVEPORT RGNL
O KAEX APT - 0 ft / 0 m 31.33673˚ -92.54432˚ 93 nm 93 nm 135° / 136° -

Altitude Profile

Advertisement - Login to hide

KSHV

Details ICAO KSHV (SHV)
Name SHREVEPORT RGNL
Region United States
Timezone America/Chicago (UTC-5.0)
Stats Elevation 257 ft / 78 m (AMSL)
Location 32.446960° -93.825410°
Runways 2
Magnetic Variation 1.386° E

METAR

KSHV 272356Z 08008KT 10SM FEW048 31/19 A2980 RMK AO2 SLP087 T03110194 10328 20294 56005

Decode

TAF

KSHV 272321Z 2800/2824 09007KT P6SM SCT050 FM280200 VRB02KT P6SM SCT250 FM281500 02006KT P6SM SCT035

Decode

Departure Runways

ID Width Length Bearing (true) Bearing (mag) Surface Threshold Offset Overrun Length
05 150 ft / 46 m 6,197 ft / 1,889 m 60.78° 59.39° Asphalt 0 ft / 0 m 102 ft / 31 m
14 200 ft / 61 m 8,361 ft / 2,548 m 142.84° 141.45° Asphalt 0 ft / 0 m 102 ft / 31 m
23 150 ft / 46 m 6,197 ft / 1,889 m 240.79° 239.40° Asphalt 0 ft / 0 m 102 ft / 31 m
32 200 ft / 61 m 8,361 ft / 2,548 m 322.85° 321.46° Asphalt 374 ft / 114 m 102 ft / 31 m

KAEX

Details ICAO KAEX (AEX)
Name ALEXANDRIA INTL
Region United States
Timezone America/Chicago (UTC-5.0)
Stats Elevation 89 ft / 27 m (AMSL)
Location 31.327354° -92.548244°
Runways 2
Magnetic Variation 0.616° E

METAR

KAEX 272353Z 06005KT 10SM CLR 30/19 A2978 RMK AO2 SLP086 T03000194 10328 20294 55006 $

Decode

TAF

TAF KAEX 272320Z 2800/2824 05004KT P6SM SCT050 FM280100 VRB03KT P6SM SKC FM281600 36008KT P6SM VCTS BKN040CB

Decode

Destination Runways

ID Width Length Bearing (true) Bearing (mag) Surface Threshold Offset Overrun Length
14 150 ft / 46 m 9,366 ft / 2,855 m 144.10° 143.48° Concrete 0 ft / 0 m 1,000 ft / 305 m
18 150 ft / 46 m 7,023 ft / 2,141 m 188.94° 188.32° Asphalt 0 ft / 0 m 1,000 ft / 305 m
32 150 ft / 46 m 9,366 ft / 2,855 m 324.11° 323.49° Concrete 0 ft / 0 m 1,000 ft / 305 m
36 150 ft / 46 m 7,023 ft / 2,141 m 8.94° 8.32° Asphalt 0 ft / 0 m 1,000 ft / 305 m

Approach Navaids

Runway Type Ident Frequency Range Bearing (true) Bearing (mag) Slope Elevation
14 Localiser IERJ 110.10 MHz 18 nm / 33 km 144.11° 143.50° - 89 ft / 27 m (AMSL)
14 Glidescope IERJ 110.10 MHz 10 nm / 19 km 144.10° 143.49° 3.00° 85 ft / 26 m (AMSL)
14 DME IERJ 110.10 MHz 18 nm / 33 km - - - 89 ft / 27 m (AMSL)

Popular Alternatives